Time;durP1;ratioP1;P1;durP2;ratioP2;P2;SDS_P1;SDS_P2;PMS_P1;PMS_P2;Temp;Humidity;BMP_temperature;BMP_pressure;BME280_temperature;BME280_humidity;BME280_pressure;Samples;Min_cycle;Max_cycle;Signal;HPM_P1;HPM_P2
2022/04/14 00:00:00;;;;;;;55.1;49.2;;;;;;;12.7;100.0;101760;;;;
2022/04/14 00:01:00;;;;;;;55.1;49.2;;;;;;;12.8;100.0;101760;;;;
2022/04/14 00:02:00;;;;;;;55.1;49.2;;;;;;;12.8;100.0;101760;;;;
2022/04/14 00:03:00;;;;;;;55.1;49.2;;;;;;;12.7;100.0;101760;;;;
2022/04/14 00:04:00;;;;;;;55.1;49.2;;;;;;;12.7;100.0;101760;;;;
2022/04/14 00:05:00;;;;;;;55.1;49.2;;;;;;;12.7;100.0;101750;;;;
2022/04/14 00:06:00;;;;;;;55.1;49.2;;;;;;;12.7;100.0;101750;;;;
2022/04/14 00:07:00;;;;;;;55.1;49.2;;;;;;;12.6;100.0;101750;;;;
2022/04/14 00:08:00;;;;;;;55.1;49.2;;;;;;;12.6;100.0;101750;;;;
2022/04/14 00:09:00;;;;;;;55.1;49.2;;;;;;;12.7;100.0;101750;;;;
2022/04/14 00:10:00;;;;;;;56.9;50.9;;;;;;;12.7;100.0;101750;;;;
2022/04/14 00:11:00;;;;;;;56.9;50.9;;;;;;;12.7;100.0;101750;;;;
2022/04/14 00:12:00;;;;;;;56.9;50.9;;;;;;;12.7;100.0;101750;;;;
2022/04/14 00:13:00;;;;;;;56.9;50.9;;;;;;;12.7;100.0;101750;;;;
2022/04/14 00:14:00;;;;;;;56.9;50.9;;;;;;;12.7;100.0;101750;;;;
2022/04/14 00:15:00;;;;;;;56.9;50.9;;;;;;;12.7;100.0;101750;;;;
2022/04/14 00:16:00;;;;;;;56.9;50.9;;;;;;;12.7;100.0;101750;;;;
2022/04/14 00:17:00;;;;;;;56.9;50.9;;;;;;;12.7;100.0;101740;;;;
2022/04/14 00:18:00;;;;;;;56.9;50.9;;;;;;;12.7;100.0;101740;;;;
2022/04/14 00:19:00;;;;;;;56.9;50.9;;;;;;;12.7;100.0;101730;;;;
2022/04/14 00:20:00;;;;;;;56.9;50.9;;;;;;;12.7;100.0;101730;;;;
2022/04/14 00:21:00;;;;;;;56.9;50.9;;;;;;;12.8;100.0;101730;;;;
2022/04/14 00:22:00;;;;;;;56.9;50.9;;;;;;;12.8;100.0;101730;;;;
2022/04/14 00:23:00;;;;;;;56.9;50.9;;;;;;;12.8;100.0;101730;;;;
2022/04/14 00:24:00;;;;;;;56.9;50.9;;;;;;;12.8;100.0;101730;;;;
2022/04/14 00:25:00;;;;;;;56.9;50.9;;;;;;;12.7;100.0;101730;;;;
2022/04/14 00:26:00;;;;;;;56.9;50.9;;;;;;;12.7;100.0;101730;;;;
2022/04/14 00:27:00;;;;;;;56.9;50.9;;;;;;;12.8;100.0;101730;;;;
2022/04/14 00:28:00;;;;;;;56.9;50.9;;;;;;;12.8;100.0;101730;;;;
2022/04/14 00:29:00;;;;;;;56.9;50.9;;;;;;;12.8;100.0;101730;;;;
2022/04/14 00:30:01;;;;;;;53.3;47.3;;;;;;;12.8;100.0;101730;;;;
2022/04/14 00:31:00;;;;;;;53.3;47.3;;;;;;;12.8;100.0;101730;;;;
2022/04/14 00:32:00;;;;;;;53.3;47.3;;;;;;;12.8;100.0;101730;;;;
2022/04/14 00:33:01;;;;;;;53.3;47.3;;;;;;;12.8;100.0;101730;;;;
2022/04/14 00:34:00;;;;;;;53.3;47.3;;;;;;;12.8;100.0;101730;;;;
2022/04/14 00:35:00;;;;;;;53.3;47.3;;;;;;;12.8;100.0;101730;;;;
2022/04/14 00:36:00;;;;;;;53.3;47.3;;;;;;;12.8;100.0;101730;;;;
2022/04/14 00:37:00;;;;;;;53.3;47.3;;;;;;;12.7;100.0;101730;;;;
2022/04/14 00:38:00;;;;;;;53.3;47.3;;;;;;;12.7;100.0;101730;;;;
2022/04/14 00:39:00;;;;;;;53.3;47.3;;;;;;;12.7;100.0;101720;;;;
2022/04/14 00:40:00;;;;;;;53.3;47.3;;;;;;;12.7;100.0;101720;;;;
2022/04/14 00:41:00;;;;;;;53.3;47.3;;;;;;;12.7;100.0;101720;;;;
2022/04/14 00:42:00;;;;;;;53.3;47.3;;;;;;;12.7;100.0;101720;;;;
2022/04/14 00:43:00;;;;;;;53.3;47.3;;;;;;;12.7;100.0;101720;;;;
2022/04/14 00:44:00;;;;;;;53.3;47.3;;;;;;;12.7;100.0;101720;;;;
2022/04/14 00:45:00;;;;;;;53.3;47.3;;;;;;;12.6;100.0;101720;;;;
2022/04/14 00:46:01;;;;;;;53.3;47.3;;;;;;;12.6;100.0;101720;;;;
2022/04/14 00:47:00;;;;;;;53.3;47.3;;;;;;;12.6;100.0;101720;;;;
2022/04/14 00:48:00;;;;;;;53.3;47.3;;;;;;;12.6;100.0;101720;;;;
2022/04/14 00:49:00;;;;;;;53.3;47.3;;;;;;;12.6;100.0;101720;;;;
2022/04/14 00:50:00;;;;;;;49.9;44.7;;;;;;;12.6;100.0;101720;;;;
2022/04/14 00:51:00;;;;;;;49.9;44.7;;;;;;;12.6;100.0;101730;;;;
2022/04/14 00:52:00;;;;;;;49.9;44.7;;;;;;;12.6;100.0;101730;;;;
2022/04/14 00:53:00;;;;;;;49.9;44.7;;;;;;;12.6;100.0;101730;;;;
2022/04/14 00:54:00;;;;;;;49.9;44.7;;;;;;;12.6;100.0;101730;;;;
2022/04/14 00:55:00;;;;;;;49.9;44.7;;;;;;;12.6;100.0;101730;;;;
2022/04/14 00:56:00;;;;;;;49.9;44.7;;;;;;;12.6;100.0;101730;;;;
2022/04/14 00:57:01;;;;;;;49.9;44.7;;;;;;;12.6;100.0;101720;;;;
2022/04/14 00:58:00;;;;;;;49.9;44.7;;;;;;;12.6;100.0;101720;;;;
2022/04/14 00:59:00;;;;;;;49.9;44.7;;;;;;;12.6;100.0;101720;;;;
2022/04/14 01:00:00;;;;;;;49.9;44.7;;;;;;;12.6;100.0;101720;;;;
2022/04/14 01:01:01;;;;;;;49.9;44.7;;;;;;;12.5;100.0;101730;;;;
2022/04/14 01:02:00;;;;;;;49.9;44.7;;;;;;;12.5;100.0;101730;;;;
2022/04/14 01:03:00;;;;;;;49.9;44.7;;;;;;;12.5;100.0;101720;;;;
2022/04/14 01:04:00;;;;;;;49.9;44.7;;;;;;;12.5;100.0;101720;;;;
2022/04/14 01:05:01;;;;;;;49.9;44.7;;;;;;;12.5;100.0;101720;;;;
2022/04/14 01:06:00;;;;;;;49.9;44.7;;;;;;;12.5;100.0;101720;;;;
2022/04/14 01:07:00;;;;;;;49.9;44.7;;;;;;;12.5;100.0;101720;;;;
2022/04/14 01:08:01;;;;;;;49.9;44.7;;;;;;;12.5;100.0;101720;;;;
2022/04/14 01:10:00;;;;;;;46.0;41.4;;;;;;;12.5;100.0;101720;;;;
2022/04/14 01:11:00;;;;;;;46.0;41.4;;;;;;;12.5;100.0;101730;;;;
2022/04/14 01:12:00;;;;;;;46.0;41.4;;;;;;;12.5;100.0;101730;;;;
2022/04/14 01:13:01;;;;;;;46.0;41.4;;;;;;;12.4;100.0;101730;;;;
2022/04/14 01:14:00;;;;;;;46.0;41.4;;;;;;;12.4;100.0;101730;;;;
2022/04/14 01:15:00;;;;;;;46.0;41.4;;;;;;;12.4;100.0;101720;;;;
2022/04/14 01:16:00;;;;;;;46.0;41.4;;;;;;;12.4;100.0;101720;;;;
2022/04/14 01:17:02;;;;;;;46.0;41.4;;;;;;;12.4;100.0;101720;;;;
2022/04/14 01:18:00;;;;;;;46.0;41.4;;;;;;;12.4;100.0;101720;;;;
2022/04/14 01:19:00;;;;;;;46.0;41.4;;;;;;;12.4;100.0;101720;;;;
2022/04/14 01:20:00;;;;;;;46.0;41.4;;;;;;;12.4;100.0;101720;;;;
2022/04/14 01:21:00;;;;;;;46.0;41.4;;;;;;;12.4;100.0;101720;;;;
2022/04/14 01:22:01;;;;;;;46.0;41.4;;;;;;;12.4;100.0;101720;;;;
2022/04/14 01:23:02;;;;;;;46.0;41.4;;;;;;;12.4;100.0;101730;;;;
2022/04/14 01:24:00;;;;;;;46.0;41.4;;;;;;;12.4;100.0;101730;;;;
2022/04/14 01:25:01;;;;;;;46.0;41.4;;;;;;;12.3;100.0;101720;;;;
2022/04/14 01:26:00;;;;;;;46.0;41.4;;;;;;;12.3;100.0;101720;;;;
2022/04/14 01:27:00;;;;;;;46.0;41.4;;;;;;;12.3;100.0;101720;;;;
2022/04/14 01:28:00;;;;;;;46.0;41.4;;;;;;;12.3;100.0;101720;;;;
2022/04/14 01:29:00;;;;;;;46.9;42.3;;;;;;;12.3;100.0;101720;;;;
2022/04/14 01:30:01;;;;;;;46.9;42.3;;;;;;;12.3;100.0;101720;;;;
2022/04/14 01:31:00;;;;;;;46.9;42.3;;;;;;;12.3;100.0;101730;;;;
2022/04/14 01:32:02;;;;;;;46.9;42.3;;;;;;;12.3;100.0;101730;;;;
2022/04/14 01:33:00;;;;;;;46.9;42.3;;;;;;;12.3;100.0;101720;;;;
2022/04/14 01:34:00;;;;;;;46.9;42.3;;;;;;;12.3;100.0;101720;;;;
2022/04/14 01:35:00;;;;;;;46.9;42.3;;;;;;;12.2;100.0;101730;;;;
2022/04/14 01:36:00;;;;;;;46.9;42.3;;;;;;;12.2;100.0;101730;;;;
2022/04/14 01:37:00;;;;;;;46.9;42.3;;;;;;;12.3;100.0;101730;;;;
2022/04/14 01:38:00;;;;;;;46.9;42.3;;;;;;;12.3;100.0;101730;;;;
2022/04/14 01:39:00;;;;;;;46.9;42.3;;;;;;;12.2;100.0;101730;;;;
2022/04/14 01:40:00;;;;;;;46.9;42.3;;;;;;;12.2;100.0;101730;;;;
2022/04/14 01:41:00;;;;;;;46.9;42.3;;;;;;;12.2;100.0;101730;;;;
2022/04/14 01:42:00;;;;;;;46.9;42.3;;;;;;;12.2;100.0;101730;;;;
2022/04/14 01:43:00;;;;;;;46.9;42.3;;;;;;;12.2;100.0;101730;;;;
2022/04/14 01:44:00;;;;;;;46.9;42.3;;;;;;;12.2;100.0;101730;;;;
2022/04/14 01:45:00;;;;;;;46.9;42.3;;;;;;;12.2;100.0;101730;;;;
2022/04/14 01:46:00;;;;;;;46.9;42.3;;;;;;;12.2;100.0;101730;;;;
2022/04/14 01:47:00;;;;;;;46.9;42.3;;;;;;;12.1;100.0;101720;;;;
2022/04/14 01:48:00;;;;;;;46.9;42.3;;;;;;;12.1;100.0;101720;;;;
2022/04/14 01:49:00;;;;;;;48.4;43.5;;;;;;;12.2;100.0;101730;;;;
2022/04/14 01:50:00;;;;;;;48.4;43.5;;;;;;;12.2;100.0;101730;;;;
2022/04/14 01:51:00;;;;;;;48.4;43.5;;;;;;;12.2;100.0;101720;;;;
2022/04/14 01:52:00;;;;;;;48.4;43.5;;;;;;;12.2;100.0;101720;;;;
2022/04/14 01:53:00;;;;;;;48.4;43.5;;;;;;;12.1;100.0;101730;;;;
2022/04/14 01:54:00;;;;;;;48.4;43.5;;;;;;;12.1;100.0;101730;;;;
2022/04/14 01:55:00;;;;;;;48.4;43.5;;;;;;;12.1;100.0;101730;;;;
2022/04/14 01:56:00;;;;;;;48.4;43.5;;;;;;;12.1;100.0;101730;;;;
2022/04/14 01:57:00;;;;;;;48.4;43.5;;;;;;;12.1;100.0;101720;;;;
2022/04/14 01:58:00;;;;;;;48.4;43.5;;;;;;;12.1;100.0;101720;;;;
2022/04/14 01:59:00;;;;;;;48.4;43.5;;;;;;;12.1;100.0;101730;;;;
2022/04/14 02:00:00;;;;;;;48.4;43.5;;;;;;;12.1;100.0;101730;;;;
2022/04/14 02:01:00;;;;;;;48.4;43.5;;;;;;;12.1;100.0;101730;;;;
2022/04/14 02:02:00;;;;;;;48.4;43.5;;;;;;;12.1;100.0;101730;;;;
2022/04/14 02:03:00;;;;;;;48.4;43.5;;;;;;;12.1;100.0;101730;;;;
2022/04/14 02:04:02;;;;;;;48.4;43.5;;;;;;;12.1;100.0;101730;;;;
2022/04/14 02:05:00;;;;;;;48.4;43.5;;;;;;;12.0;100.0;101730;;;;
2022/04/14 02:06:00;;;;;;;48.4;43.5;;;;;;;12.0;100.0;101730;;;;
2022/04/14 02:07:00;;;;;;;48.4;43.5;;;;;;;12.1;100.0;101730;;;;
2022/04/14 02:08:00;;;;;;;48.4;43.5;;;;;;;12.1;100.0;101730;;;;
2022/04/14 02:09:00;;;;;;;48.1;43.1;;;;;;;12.1;100.0;101740;;;;
2022/04/14 02:10:00;;;;;;;48.1;43.1;;;;;;;12.1;100.0;101740;;;;
2022/04/14 02:11:01;;;;;;;48.1;43.1;;;;;;;12.1;100.0;101740;;;;
2022/04/14 02:12:00;;;;;;;48.1;43.1;;;;;;;12.1;100.0;101740;;;;
2022/04/14 02:13:00;;;;;;;48.1;43.1;;;;;;;12.1;100.0;101740;;;;
2022/04/14 02:14:00;;;;;;;48.1;43.1;;;;;;;12.1;100.0;101740;;;;
2022/04/14 02:15:00;;;;;;;48.1;43.1;;;;;;;12.0;100.0;101740;;;;
2022/04/14 02:16:00;;;;;;;48.1;43.1;;;;;;;12.0;100.0;101740;;;;
2022/04/14 02:17:00;;;;;;;48.1;43.1;;;;;;;12.0;100.0;101740;;;;
2022/04/14 02:18:00;;;;;;;48.1;43.1;;;;;;;12.0;100.0;101740;;;;
2022/04/14 02:19:00;;;;;;;48.1;43.1;;;;;;;12.0;100.0;101740;;;;
2022/04/14 02:20:00;;;;;;;48.1;43.1;;;;;;;12.0;100.0;101740;;;;
2022/04/14 02:21:00;;;;;;;48.1;43.1;;;;;;;11.9;100.0;101740;;;;
2022/04/14 02:22:00;;;;;;;48.1;43.1;;;;;;;11.9;100.0;101740;;;;
2022/04/14 02:23:00;;;;;;;48.1;43.1;;;;;;;11.9;100.0;101750;;;;
2022/04/14 02:24:00;;;;;;;48.1;43.1;;;;;;;11.9;100.0;101750;;;;
2022/04/14 02:25:01;;;;;;;48.1;43.1;;;;;;;11.9;100.0;101740;;;;
2022/04/14 02:26:00;;;;;;;48.1;43.1;;;;;;;11.9;100.0;101740;;;;
2022/04/14 02:27:00;;;;;;;48.1;43.1;;;;;;;11.9;100.0;101740;;;;
2022/04/14 02:28:00;;;;;;;48.1;43.1;;;;;;;11.9;100.0;101740;;;;
2022/04/14 02:29:00;;;;;;;48.7;43.6;;;;;;;11.9;100.0;101740;;;;
2022/04/14 02:30:00;;;;;;;48.7;43.6;;;;;;;11.9;100.0;101740;;;;
2022/04/14 02:31:00;;;;;;;48.7;43.6;;;;;;;12.0;100.0;101740;;;;
2022/04/14 02:32:00;;;;;;;48.7;43.6;;;;;;;12.0;100.0;101740;;;;
2022/04/14 02:33:01;;;;;;;48.7;43.6;;;;;;;12.0;100.0;101740;;;;
2022/04/14 02:34:00;;;;;;;48.7;43.6;;;;;;;12.0;100.0;101740;;;;
2022/04/14 02:35:00;;;;;;;48.7;43.6;;;;;;;11.9;100.0;101740;;;;
2022/04/14 02:36:00;;;;;;;48.7;43.6;;;;;;;11.9;100.0;101740;;;;
2022/04/14 02:37:00;;;;;;;48.7;43.6;;;;;;;11.9;100.0;101740;;;;
2022/04/14 02:38:00;;;;;;;48.7;43.6;;;;;;;11.9;100.0;101740;;;;
2022/04/14 02:39:00;;;;;;;48.7;43.6;;;;;;;11.9;100.0;101750;;;;
2022/04/14 02:40:00;;;;;;;48.7;43.6;;;;;;;11.9;100.0;101750;;;;
2022/04/14 02:41:00;;;;;;;48.7;43.6;;;;;;;11.9;100.0;101750;;;;
2022/04/14 02:42:00;;;;;;;48.7;43.6;;;;;;;11.9;100.0;101750;;;;
2022/04/14 02:43:00;;;;;;;48.7;43.6;;;;;;;11.9;100.0;101750;;;;
2022/04/14 02:44:00;;;;;;;48.7;43.6;;;;;;;11.9;100.0;101750;;;;
2022/04/14 02:45:00;;;;;;;48.7;43.6;;;;;;;11.9;100.0;101750;;;;
2022/04/14 02:46:00;;;;;;;48.7;43.6;;;;;;;11.9;100.0;101750;;;;
2022/04/14 02:47:00;;;;;;;48.7;43.6;;;;;;;11.9;100.0;101750;;;;
2022/04/14 02:48:00;;;;;;;48.7;43.6;;;;;;;11.9;100.0;101750;;;;
2022/04/14 02:49:00;;;;;;;55.8;48.3;;;;;;;11.9;100.0;101750;;;;
2022/04/14 02:50:00;;;;;;;55.8;48.3;;;;;;;11.9;100.0;101750;;;;
2022/04/14 02:51:00;;;;;;;55.8;48.3;;;;;;;11.9;100.0;101750;;;;
2022/04/14 02:52:00;;;;;;;55.8;48.3;;;;;;;11.9;100.0;101750;;;;
2022/04/14 02:53:00;;;;;;;55.8;48.3;;;;;;;11.9;100.0;101750;;;;
2022/04/14 02:54:00;;;;;;;55.8;48.3;;;;;;;11.9;100.0;101750;;;;
2022/04/14 02:55:00;;;;;;;55.8;48.3;;;;;;;11.9;100.0;101750;;;;
2022/04/14 02:56:00;;;;;;;55.8;48.3;;;;;;;11.9;100.0;101750;;;;
2022/04/14 02:57:00;;;;;;;55.8;48.3;;;;;;;11.9;100.0;101750;;;;
2022/04/14 02:58:00;;;;;;;55.8;48.3;;;;;;;11.9;100.0;101750;;;;
2022/04/14 02:59:00;;;;;;;55.8;48.3;;;;;;;11.8;100.0;101750;;;;
2022/04/14 03:00:00;;;;;;;55.8;48.3;;;;;;;11.8;100.0;101750;;;;
2022/04/14 03:01:00;;;;;;;55.8;48.3;;;;;;;11.8;100.0;101750;;;;
2022/04/14 03:02:00;;;;;;;55.8;48.3;;;;;;;11.8;100.0;101750;;;;
2022/04/14 03:03:00;;;;;;;55.8;48.3;;;;;;;11.8;100.0;101750;;;;
2022/04/14 03:04:00;;;;;;;55.8;48.3;;;;;;;11.8;100.0;101750;;;;
2022/04/14 03:05:00;;;;;;;55.8;48.3;;;;;;;11.8;100.0;101750;;;;
2022/04/14 03:06:00;;;;;;;55.8;48.3;;;;;;;11.8;100.0;101750;;;;
2022/04/14 03:07:00;;;;;;;55.8;48.3;;;;;;;11.8;100.0;101750;;;;
2022/04/14 03:08:00;;;;;;;55.8;48.3;;;;;;;11.8;100.0;101750;;;;
2022/04/14 03:09:00;;;;;;;67.3;48.5;;;;;;;11.8;100.0;101750;;;;
2022/04/14 03:10:00;;;;;;;67.3;48.5;;;;;;;11.8;100.0;101750;;;;
2022/04/14 03:11:00;;;;;;;67.3;48.5;;;;;;;11.8;100.0;101750;;;;
2022/04/14 03:12:00;;;;;;;67.3;48.5;;;;;;;11.8;100.0;101750;;;;
2022/04/14 03:13:00;;;;;;;67.3;48.5;;;;;;;11.8;100.0;101750;;;;
2022/04/14 03:14:01;;;;;;;67.3;48.5;;;;;;;11.8;100.0;101750;;;;
2022/04/14 03:15:00;;;;;;;67.3;48.5;;;;;;;11.8;100.0;101740;;;;
2022/04/14 03:16:00;;;;;;;67.3;48.5;;;;;;;11.8;100.0;101740;;;;
2022/04/14 03:17:00;;;;;;;67.3;48.5;;;;;;;11.8;100.0;101740;;;;
2022/04/14 03:18:00;;;;;;;67.3;48.5;;;;;;;11.8;100.0;101740;;;;
2022/04/14 03:19:00;;;;;;;67.3;48.5;;;;;;;11.7;100.0;101740;;;;
2022/04/14 03:20:00;;;;;;;67.3;48.5;;;;;;;11.7;100.0;101740;;;;
2022/04/14 03:21:01;;;;;;;67.3;48.5;;;;;;;11.7;100.0;101750;;;;
2022/04/14 03:22:00;;;;;;;67.3;48.5;;;;;;;11.7;100.0;101750;;;;
2022/04/14 03:23:01;;;;;;;67.3;48.5;;;;;;;11.7;100.0;101740;;;;
2022/04/14 03:24:00;;;;;;;67.3;48.5;;;;;;;11.7;100.0;101740;;;;
2022/04/14 03:25:01;;;;;;;67.3;48.5;;;;;;;11.7;100.0;101750;;;;
2022/04/14 03:26:01;;;;;;;67.3;48.5;;;;;;;11.7;100.0;101750;;;;
2022/04/14 03:27:00;;;;;;;67.3;48.5;;;;;;;11.7;100.0;101750;;;;
2022/04/14 03:28:00;;;;;;;67.3;48.5;;;;;;;11.7;100.0;101750;;;;
2022/04/14 03:29:00;;;;;;;91.8;48.3;;;;;;;11.7;100.0;101750;;;;
2022/04/14 03:30:00;;;;;;;91.8;48.3;;;;;;;11.7;100.0;101750;;;;
2022/04/14 03:31:00;;;;;;;91.8;48.3;;;;;;;11.7;100.0;101750;;;;
2022/04/14 03:32:00;;;;;;;91.8;48.3;;;;;;;11.7;100.0;101750;;;;
2022/04/14 03:33:00;;;;;;;91.8;48.3;;;;;;;11.7;100.0;101750;;;;
2022/04/14 03:34:00;;;;;;;91.8;48.3;;;;;;;11.7;100.0;101750;;;;
2022/04/14 03:35:03;;;;;;;91.8;48.3;;;;;;;11.7;100.0;101750;;;;
2022/04/14 03:36:00;;;;;;;91.8;48.3;;;;;;;11.7;100.0;101750;;;;
2022/04/14 03:37:03;;;;;;;91.8;48.3;;;;;;;11.7;100.0;101750;;;;
2022/04/14 03:38:00;;;;;;;91.8;48.3;;;;;;;11.7;100.0;101750;;;;
2022/04/14 03:39:00;;;;;;;91.8;48.3;;;;;;;11.7;100.0;101750;;;;
2022/04/14 03:40:00;;;;;;;91.8;48.3;;;;;;;11.7;100.0;101750;;;;
2022/04/14 03:41:02;;;;;;;91.8;48.3;;;;;;;11.6;100.0;101750;;;;
2022/04/14 03:42:00;;;;;;;91.8;48.3;;;;;;;11.6;100.0;101750;;;;
2022/04/14 03:43:00;;;;;;;91.8;48.3;;;;;;;11.6;100.0;101750;;;;
2022/04/14 03:44:00;;;;;;;91.8;48.3;;;;;;;11.6;100.0;101750;;;;
2022/04/14 03:45:00;;;;;;;91.8;48.3;;;;;;;11.6;100.0;101750;;;;
2022/04/14 03:46:00;;;;;;;91.8;48.3;;;;;;;11.6;100.0;101750;;;;
2022/04/14 03:47:00;;;;;;;91.8;48.3;;;;;;;11.5;100.0;101750;;;;
2022/04/14 03:48:00;;;;;;;91.8;48.3;;;;;;;11.5;100.0;101750;;;;
2022/04/14 03:49:00;;;;;;;70.8;46.5;;;;;;;11.5;100.0;101750;;;;
2022/04/14 03:50:00;;;;;;;70.8;46.5;;;;;;;11.5;100.0;101750;;;;
2022/04/14 03:51:00;;;;;;;70.8;46.5;;;;;;;11.5;100.0;101750;;;;
2022/04/14 03:52:00;;;;;;;70.8;46.5;;;;;;;11.5;100.0;101750;;;;
2022/04/14 03:53:01;;;;;;;70.8;46.5;;;;;;;11.5;100.0;101760;;;;
2022/04/14 03:54:00;;;;;;;70.8;46.5;;;;;;;11.5;100.0;101760;;;;
2022/04/14 03:55:00;;;;;;;70.8;46.5;;;;;;;11.4;100.0;101750;;;;
2022/04/14 03:56:00;;;;;;;70.8;46.5;;;;;;;11.4;100.0;101750;;;;
2022/04/14 03:57:00;;;;;;;70.8;46.5;;;;;;;11.5;100.0;101750;;;;
2022/04/14 03:58:00;;;;;;;70.8;46.5;;;;;;;11.5;100.0;101750;;;;
2022/04/14 03:59:00;;;;;;;70.8;46.5;;;;;;;11.5;100.0;101760;;;;
2022/04/14 04:00:00;;;;;;;70.8;46.5;;;;;;;11.5;100.0;101760;;;;
2022/04/14 04:01:00;;;;;;;70.8;46.5;;;;;;;11.5;100.0;101750;;;;
2022/04/14 04:02:00;;;;;;;70.8;46.5;;;;;;;11.5;100.0;101750;;;;
2022/04/14 04:03:00;;;;;;;70.8;46.5;;;;;;;11.4;100.0;101750;;;;
2022/04/14 04:04:00;;;;;;;70.8;46.5;;;;;;;11.4;100.0;101750;;;;
2022/04/14 04:05:00;;;;;;;70.8;46.5;;;;;;;11.4;100.0;101750;;;;
2022/04/14 04:06:00;;;;;;;70.8;46.5;;;;;;;11.4;100.0;101750;;;;
2022/04/14 04:07:00;;;;;;;70.8;46.5;;;;;;;11.4;100.0;101750;;;;
2022/04/14 04:08:00;;;;;;;70.8;46.5;;;;;;;11.4;100.0;101750;;;;
2022/04/14 04:09:00;;;;;;;89.5;44.6;;;;;;;11.5;100.0;101750;;;;
2022/04/14 04:10:00;;;;;;;89.5;44.6;;;;;;;11.5;100.0;101750;;;;
2022/04/14 04:11:00;;;;;;;89.5;44.6;;;;;;;11.4;100.0;101750;;;;
2022/04/14 04:12:00;;;;;;;89.5;44.6;;;;;;;11.4;100.0;101750;;;;
2022/04/14 04:13:00;;;;;;;89.5;44.6;;;;;;;11.4;100.0;101750;;;;
2022/04/14 04:14:00;;;;;;;89.5;44.6;;;;;;;11.4;100.0;101750;;;;
2022/04/14 04:15:00;;;;;;;89.5;44.6;;;;;;;11.4;100.0;101750;;;;
2022/04/14 04:16:00;;;;;;;89.5;44.6;;;;;;;11.4;100.0;101750;;;;
2022/04/14 04:17:00;;;;;;;89.5;44.6;;;;;;;11.4;100.0;101750;;;;
2022/04/14 04:18:00;;;;;;;89.5;44.6;;;;;;;11.4;100.0;101750;;;;
2022/04/14 04:19:00;;;;;;;89.5;44.6;;;;;;;11.3;100.0;101760;;;;
2022/04/14 04:20:01;;;;;;;89.5;44.6;;;;;;;11.3;100.0;101760;;;;
2022/04/14 04:21:00;;;;;;;89.5;44.6;;;;;;;11.3;100.0;101760;;;;
2022/04/14 04:22:00;;;;;;;89.5;44.6;;;;;;;11.3;100.0;101760;;;;
2022/04/14 04:23:04;;;;;;;89.5;44.6;;;;;;;11.3;100.0;101760;;;;
2022/04/14 04:24:00;;;;;;;89.5;44.6;;;;;;;11.3;100.0;101760;;;;
2022/04/14 04:25:00;;;;;;;89.5;44.6;;;;;;;11.3;100.0;101760;;;;
2022/04/14 04:26:00;;;;;;;89.5;44.6;;;;;;;11.3;100.0;101760;;;;
2022/04/14 04:27:00;;;;;;;89.5;44.6;;;;;;;11.3;100.0;101770;;;;
2022/04/14 04:28:00;;;;;;;89.5;44.6;;;;;;;11.3;100.0;101770;;;;
2022/04/14 04:29:00;;;;;;;219.9;51.4;;;;;;;11.3;100.0;101770;;;;
2022/04/14 04:30:00;;;;;;;219.9;51.4;;;;;;;11.3;100.0;101770;;;;
2022/04/14 04:31:00;;;;;;;219.9;51.4;;;;;;;11.4;100.0;101760;;;;
2022/04/14 04:32:00;;;;;;;219.9;51.4;;;;;;;11.4;100.0;101760;;;;
2022/04/14 04:33:01;;;;;;;219.9;51.4;;;;;;;11.3;100.0;101770;;;;
2022/04/14 04:34:00;;;;;;;219.9;51.4;;;;;;;11.3;100.0;101770;;;;
2022/04/14 04:35:01;;;;;;;219.9;51.4;;;;;;;11.3;100.0;101770;;;;
2022/04/14 04:36:00;;;;;;;219.9;51.4;;;;;;;11.3;100.0;101770;;;;
2022/04/14 04:37:00;;;;;;;219.9;51.4;;;;;;;11.3;100.0;101770;;;;
2022/04/14 04:38:00;;;;;;;219.9;51.4;;;;;;;11.3;100.0;101770;;;;
2022/04/14 04:39:01;;;;;;;219.9;51.4;;;;;;;11.3;100.0;101770;;;;
2022/04/14 04:40:00;;;;;;;219.9;51.4;;;;;;;11.3;100.0;101770;;;;
2022/04/14 04:41:00;;;;;;;219.9;51.4;;;;;;;11.2;100.0;101770;;;;
2022/04/14 04:42:00;;;;;;;219.9;51.4;;;;;;;11.2;100.0;101770;;;;
2022/04/14 04:43:00;;;;;;;219.9;51.4;;;;;;;11.3;100.0;101780;;;;
2022/04/14 04:44:00;;;;;;;219.9;51.4;;;;;;;11.3;100.0;101780;;;;
2022/04/14 04:45:00;;;;;;;219.9;51.4;;;;;;;11.2;100.0;101780;;;;
2022/04/14 04:46:00;;;;;;;219.9;51.4;;;;;;;11.2;100.0;101780;;;;
2022/04/14 04:47:00;;;;;;;219.9;51.4;;;;;;;11.2;100.0;101780;;;;
2022/04/14 04:48:02;;;;;;;219.9;51.4;;;;;;;11.2;100.0;101780;;;;
2022/04/14 04:49:00;;;;;;;148.8;48.7;;;;;;;11.2;100.0;101780;;;;
2022/04/14 04:50:00;;;;;;;148.8;48.7;;;;;;;11.2;100.0;101780;;;;
2022/04/14 04:51:00;;;;;;;148.8;48.7;;;;;;;11.2;100.0;101770;;;;
2022/04/14 04:52:00;;;;;;;148.8;48.7;;;;;;;11.2;100.0;101770;;;;
2022/04/14 04:53:00;;;;;;;148.8;48.7;;;;;;;11.2;100.0;101780;;;;
2022/04/14 04:54:00;;;;;;;148.8;48.7;;;;;;;11.2;100.0;101780;;;;
2022/04/14 04:55:00;;;;;;;148.8;48.7;;;;;;;11.2;100.0;101780;;;;
2022/04/14 04:56:00;;;;;;;148.8;48.7;;;;;;;11.2;100.0;101780;;;;
2022/04/14 04:57:00;;;;;;;148.8;48.7;;;;;;;11.3;100.0;101780;;;;
2022/04/14 04:58:00;;;;;;;148.8;48.7;;;;;;;11.3;100.0;101780;;;;
2022/04/14 04:59:00;;;;;;;148.8;48.7;;;;;;;11.2;100.0;101780;;;;
2022/04/14 05:00:00;;;;;;;148.8;48.7;;;;;;;11.2;100.0;101780;;;;
2022/04/14 05:01:00;;;;;;;148.8;48.7;;;;;;;11.1;100.0;101790;;;;
2022/04/14 05:02:00;;;;;;;148.8;48.7;;;;;;;11.1;100.0;101790;;;;
2022/04/14 05:03:00;;;;;;;148.8;48.7;;;;;;;11.1;100.0;101790;;;;
2022/04/14 05:04:00;;;;;;;148.8;48.7;;;;;;;11.1;100.0;101790;;;;
2022/04/14 05:05:00;;;;;;;148.8;48.7;;;;;;;11.2;100.0;101790;;;;
2022/04/14 05:06:00;;;;;;;148.8;48.7;;;;;;;11.2;100.0;101790;;;;
2022/04/14 05:07:00;;;;;;;148.8;48.7;;;;;;;11.2;100.0;101790;;;;
2022/04/14 05:08:00;;;;;;;148.8;48.7;;;;;;;11.2;100.0;101790;;;;
2022/04/14 05:09:00;;;;;;;102.9;44.2;;;;;;;11.2;100.0;101800;;;;
2022/04/14 05:10:00;;;;;;;102.9;44.2;;;;;;;11.2;100.0;101800;;;;
2022/04/14 05:11:00;;;;;;;102.9;44.2;;;;;;;11.3;100.0;101790;;;;
2022/04/14 05:12:00;;;;;;;102.9;44.2;;;;;;;11.3;100.0;101790;;;;
2022/04/14 05:13:00;;;;;;;102.9;44.2;;;;;;;11.1;100.0;101800;;;;
2022/04/14 05:14:00;;;;;;;102.9;44.2;;;;;;;11.1;100.0;101800;;;;
2022/04/14 05:15:00;;;;;;;102.9;44.2;;;;;;;11.2;100.0;101790;;;;
2022/04/14 05:16:02;;;;;;;102.9;44.2;;;;;;;11.2;100.0;101790;;;;
2022/04/14 05:17:00;;;;;;;102.9;44.2;;;;;;;11.1;100.0;101800;;;;
2022/04/14 05:18:00;;;;;;;102.9;44.2;;;;;;;11.1;100.0;101800;;;;
2022/04/14 05:19:00;;;;;;;102.9;44.2;;;;;;;11.2;100.0;101800;;;;
2022/04/14 05:20:00;;;;;;;102.9;44.2;;;;;;;11.2;100.0;101800;;;;
2022/04/14 05:21:00;;;;;;;102.9;44.2;;;;;;;11.1;100.0;101800;;;;
2022/04/14 05:22:01;;;;;;;102.9;44.2;;;;;;;11.1;100.0;101800;;;;
2022/04/14 05:23:01;;;;;;;102.9;44.2;;;;;;;11.1;100.0;101800;;;;
2022/04/14 05:24:00;;;;;;;102.9;44.2;;;;;;;11.1;100.0;101800;;;;
2022/04/14 05:25:02;;;;;;;102.9;44.2;;;;;;;11.1;100.0;101800;;;;
2022/04/14 05:26:00;;;;;;;102.9;44.2;;;;;;;11.1;100.0;101800;;;;
2022/04/14 05:27:00;;;;;;;102.9;44.2;;;;;;;11.1;100.0;101800;;;;
2022/04/14 05:28:00;;;;;;;102.9;44.2;;;;;;;11.1;100.0;101800;;;;
2022/04/14 05:29:00;;;;;;;95.1;41.9;;;;;;;11.1;100.0;101800;;;;
2022/04/14 05:30:00;;;;;;;95.1;41.9;;;;;;;11.1;100.0;101800;;;;
2022/04/14 05:31:00;;;;;;;95.1;41.9;;;;;;;11.1;100.0;101800;;;;
2022/04/14 05:32:00;;;;;;;95.1;41.9;;;;;;;11.1;100.0;101800;;;;
2022/04/14 05:33:00;;;;;;;95.1;41.9;;;;;;;11.1;100.0;101800;;;;
2022/04/14 05:34:00;;;;;;;95.1;41.9;;;;;;;11.1;100.0;101800;;;;
2022/04/14 05:35:00;;;;;;;95.1;41.9;;;;;;;11.1;100.0;101800;;;;
2022/04/14 05:36:00;;;;;;;95.1;41.9;;;;;;;11.1;100.0;101800;;;;
2022/04/14 05:37:00;;;;;;;95.1;41.9;;;;;;;11.1;100.0;101810;;;;
2022/04/14 05:38:00;;;;;;;95.1;41.9;;;;;;;11.1;100.0;101810;;;;
2022/04/14 05:39:00;;;;;;;95.1;41.9;;;;;;;11.1;100.0;101810;;;;
2022/04/14 05:40:00;;;;;;;95.1;41.9;;;;;;;11.1;100.0;101810;;;;
2022/04/14 05:41:00;;;;;;;95.1;41.9;;;;;;;11.1;100.0;101810;;;;
2022/04/14 05:42:00;;;;;;;95.1;41.9;;;;;;;11.1;100.0;101810;;;;
2022/04/14 05:43:00;;;;;;;95.1;41.9;;;;;;;11.2;100.0;101810;;;;
2022/04/14 05:44:00;;;;;;;95.1;41.9;;;;;;;11.2;100.0;101810;;;;
2022/04/14 05:45:00;;;;;;;95.1;41.9;;;;;;;11.3;100.0;101820;;;;
2022/04/14 05:46:01;;;;;;;95.1;41.9;;;;;;;11.3;100.0;101820;;;;
2022/04/14 05:47:00;;;;;;;95.1;41.9;;;;;;;11.1;100.0;101820;;;;
2022/04/14 05:48:00;;;;;;;95.1;41.9;;;;;;;11.1;100.0;101820;;;;
2022/04/14 05:49:00;;;;;;;67.4;39.4;;;;;;;11.1;100.0;101830;;;;
2022/04/14 05:50:00;;;;;;;67.4;39.4;;;;;;;11.1;100.0;101830;;;;
2022/04/14 05:51:00;;;;;;;67.4;39.4;;;;;;;11.1;100.0;101830;;;;
2022/04/14 05:52:00;;;;;;;67.4;39.4;;;;;;;11.1;100.0;101830;;;;
2022/04/14 05:53:00;;;;;;;67.4;39.4;;;;;;;11.1;100.0;101830;;;;
2022/04/14 05:54:00;;;;;;;67.4;39.4;;;;;;;11.1;100.0;101830;;;;
2022/04/14 05:55:01;;;;;;;67.4;39.4;;;;;;;11.1;100.0;101830;;;;
2022/04/14 05:56:00;;;;;;;67.4;39.4;;;;;;;11.1;100.0;101830;;;;
2022/04/14 05:57:00;;;;;;;67.4;39.4;;;;;;;11.1;100.0;101830;;;;
2022/04/14 05:58:00;;;;;;;67.4;39.4;;;;;;;11.1;100.0;101830;;;;
2022/04/14 05:59:00;;;;;;;67.4;39.4;;;;;;;11.1;100.0;101840;;;;
2022/04/14 06:00:00;;;;;;;67.4;39.4;;;;;;;11.1;100.0;101840;;;;
2022/04/14 06:01:00;;;;;;;67.4;39.4;;;;;;;11.1;100.0;101840;;;;
2022/04/14 06:02:00;;;;;;;67.4;39.4;;;;;;;11.1;100.0;101840;;;;
2022/04/14 06:03:00;;;;;;;67.4;39.4;;;;;;;11.1;100.0;101840;;;;
2022/04/14 06:04:00;;;;;;;67.4;39.4;;;;;;;11.1;100.0;101840;;;;
2022/04/14 06:05:00;;;;;;;67.4;39.4;;;;;;;11.2;100.0;101840;;;;
2022/04/14 06:06:00;;;;;;;67.4;39.4;;;;;;;11.2;100.0;101840;;;;
2022/04/14 06:07:00;;;;;;;67.4;39.4;;;;;;;11.3;100.0;101840;;;;
2022/04/14 06:08:00;;;;;;;44.3;39.6;;;;;;;11.3;100.0;101840;;;;
2022/04/14 06:09:00;;;;;;;44.3;39.6;;;;;;;11.3;100.0;101840;;;;
2022/04/14 06:10:00;;;;;;;44.3;39.6;;;;;;;11.3;100.0;101840;;;;